PST,Max TemperatureF,Mean TemperatureF,Min TemperatureF,Max Dew PointF,MeanDew PointF,Min DewpointF,Max Humidity, Mean Humidity, Min Humidity, Max Sea Level PressureIn, Mean Sea Level PressureIn, Min Sea Level PressureIn, Max VisibilityMiles, Mean VisibilityMiles, Min VisibilityMiles, Max Wind SpeedMPH, Mean Wind SpeedMPH, Max Gust SpeedMPH,PrecipitationIn, CloudCover, Events, WindDirDegrees
2012-12-1,55,47,39,39,36,33,79,61,43,29.84,29.76,29.59,10,10,10,29,15,39,0.02,4,Rain,198
2012-12-2,47,38,28,43,35,27,100,88,76,30.14,29.76,29.39,10,8,2,8,9,10,1.18,6,Rain-Snow,201
2012-12-3,48,36,23,32,28,23,92,73,53,30.25,30.16,30.07,10,10,6,14,5,17,0.00,3,,154
2012-12-4,46,43,39,40,38,32,100,81,62,30.17,30.12,30.07,10,10,10,21,10,25,0.06,8,Rain,198
2012-12-5,50,39,27,42,35,27,100,87,74,30.19,30.14,30.08,10,6,0,12,3,14,0.12,5,Fog-Rain,225
2012-12-6,47,35,22,38,29,21,100,83,65,30.25,30.16,30.12,10,7,0,12,2,14,0.00,4,Fog,51
2012-12-7,42,30,18,30,23,15,100,76,52,30.26,30.20,30.13,10,7,2,14,1,18,0.00,0,,11
2012-12-8,39,29,19,27,22,17,96,75,54,30.30,30.23,30.18,10,8,3,7,1,9,0.00,0,,146
2012-12-9,45,33,20,28,24,18,100,75,49,30.47,30.38,30.25,10,7,2,7,1,8,0.00,3,,125
2012-12-10,48,35,21,35,27,20,100,80,60,30.47,30.36,30.22,10,8,2,7,1,8,0.00,2,,102
2012-12-11,42,30,17,34,25,14,100,81,62,30.22,29.94,29.68,10,6,1,21,2,24,0.10,3,Rain-Snow,280
2012-12-12,34,31,28,32,29,25,100,85,69,29.87,29.74,29.66,10,6,2,12,4,13,0.05,8,Snow,314
2012-12-13,34,26,17,27,21,16,100,83,66,29.95,29.88,29.79,10,9,2,9,3,12,0.00,4,,4
2012-12-14,27,20,12,25,21,9,96,88,80,30.00,29.87,29.77,10,6,0,7,0,9,0.09,7,Fog-Snow,60
2012-12-15,31,17,3,27,18,3,100,87,74,30.02,29.91,29.82,10,5,0,12,3,15,0.07,6,Fog-Snow,187
2012-12-16,41,34,27,34,29,25,100,90,79,29.98,29.86,29.64,10,6,0,26,4,35,0.17,8,Fog-Snow,262
2012-12-17,41,29,16,36,29,15,92,76,59,30.01,29.81,29.63,10,9,0,32,11,38,0.09,6,Fog-Rain-Snow,260
2012-12-18,29,19,9,21,14,9,96,75,53,30.19,30.03,29.90,10,9,5,13,3,16,0.00,4,,325
2012-12-19,32,19,5,16,11,3,92,70,47,30.30,30.21,30.06,10,9,2,17,7,22,0.00,2,,165
2012-12-20,44,35,26,22,17,11,63,50,37,30.09,29.93,29.80,10,10,10,33,15,44,0.00,3,,165
2012-12-21,39,35,30,32,28,20,100,74,48,29.88,29.82,29.75,10,5,1,31,14,40,0.09,7,Snow,176
2012-12-22,36,31,25,34,29,20,100,88,75,29.96,29.74,29.62,10,6,0,30,10,39,0.18,7,Fog-Rain-Snow,197
2012-12-23,36,32,28,34,31,23,100,89,78,29.95,29.77,29.64,10,5,0,39,9,46,0.33,8,Fog-Snow,187
2012-12-24,32,21,9,28,19,7,92,78,63,30.27,30.13,29.86,10,9,4,7,3,10,T,4,Snow,244
2012-12-25,35,22,9,29,23,6,92,81,69,30.19,29.94,29.73,10,9,6,11,6,13,T,7,Snow,209
2012-12-26,35,30,25,28,26,24,100,88,75,30.03,29.80,29.66,10,6,2,13,4,16,0.09,8,Snow,258
2012-12-27,31,17,3,25,16,2,100,89,78,30.28,30.12,29.96,10,5,0,6,2,7,0.01,6,Fog-Snow,193
2012-12-28,31,17,2,25,17,-1,100,85,69,30.28,30.15,30.04,10,6,2,14,2,18,0.02,5,Snow,179
2012-12-29,30,26,22,27,23,20,92,87,81,30.12,30.07,29.98,10,8,2,7,1,8,T,8,Snow,345
2012-12-30,31,14,-3,23,17,-6,92,78,63,30.36,30.14,30.00,10,8,2,13,4,17,0.01,6,Snow,1
2012-12-31,22,8,-6,13,3,-8,95,82,68,30.48,30.40,30.25,10,10,7,10,1,23,0.00,3,,84